Torrance, Pennsylvania
Current Conditions -  °F | °C
As of 10:50 AM on Thursday 29 Jan 2015 (Local Time) from KLBE Reporting Station
Overcast Overcast  
Wind Chill: 30°   Ceiling: 15000
Heat Index: 39°   Visibility: 10mi
Dew Point:   Wind: 16mph
Humidity: 28%   Direction: 180°S
Pressure: 29.96"   Gusts: NA
Location:  40.42°N, 79.22°W
Report Text: KLBE 291550Z 18014KT 10SM OVC150 04/M13 A2996
Loading
Personal Weather Stations






























Interactive Weather Map New forecast layout! Learn more

10-Day Weather Forecast

Advertisements
Track Severe Weather on mobile